Lake Wildwood, California
Current Conditions -  °F | °C
As of 7:40 PM on Saturday 22 Nov 2014 (Local Time) from KGOO Reporting Station
Clear Clear  
Wind Chill:   Ceiling: Unl
Heat Index:   Visibility: 9mi
Dew Point:   Wind: 0mph
Humidity: 100%   Direction: NA
Pressure: 30.2"   Gusts: NA
Location:  39.1921°N, 121.19°W
Report Text: KGOO 230340Z AUTO 00000KT 9SM CLR 05/05 A3020 RMK AO1
Loading
Personal Weather Stations






























Interactive Weather Map New forecast layout! Learn more

10-Day Weather Forecast

Advertisements
Track Severe Weather on mobile